Time;durP1;ratioP1;P1;durP2;ratioP2;P2;SDS_P1;SDS_P2;PMS_P1;PMS_P2;Temp;Humidity;BMP_temperature;BMP_pressure;BME280_temperature;BME280_humidity;BME280_pressure;Samples;Min_cycle;Max_cycle;Signal;HPM_P1;HPM_P2
2023/10/09 00:01:01;;;;;;;8.48;1.90;;;14.40;98.10;;;;;;4885880;29;20165;-73
2023/10/09 00:03:27;;;;;;;3.50;1.85;;;14.40;98.10;;;;;;4878711;29;20037;-79
2023/10/09 00:05:54;;;;;;;3.97;2.25;;;14.30;98.50;;;;;;4878771;29;20037;-73
2023/10/09 00:08:26;;;;;;;3.90;1.92;;;14.20;98.80;;;;;;4878721;29;20417;-74
2023/10/09 00:10:53;;;;;;;4.05;2.20;;;14.10;98.80;;;;;;4878426;29;20085;-74
2023/10/09 00:13:32;;;;;;;4.57;1.98;;;14.20;99.10;;;;;;4878626;29;20044;-74
2023/10/09 00:16:14;;;;;;;5.18;2.08;;;14.10;99.20;;;;;;4878325;29;20032;-73
2023/10/09 00:18:46;;;;;;;4.55;1.90;;;14.00;99.30;;;;;;4878435;29;20038;-73
2023/10/09 00:21:16;;;;;;;8.95;2.47;;;13.90;99.60;;;;;;4866570;29;20123;-80
2023/10/09 00:23:42;;;;;;;3.72;1.75;;;13.80;99.90;;;;;;4878683;29;20036;-73
2023/10/09 00:26:10;;;;;;;4.95;2.05;;;13.80;99.90;;;;;;4881576;29;20033;-73
2023/10/09 00:28:50;;;;;;;3.22;1.73;;;13.70;99.90;;;;;;4866653;29;20028;-73
2023/10/09 00:31:29;;;;;;;3.40;1.90;;;13.70;99.90;;;;;;4878329;29;20039;-74
2023/10/09 00:33:56;;;;;;;4.30;1.80;;;13.70;99.90;;;;;;4863329;29;20533;-75
2023/10/09 00:36:28;;;;;;;10.77;2.35;;;13.50;99.90;;;;;;4891277;29;20435;-73
2023/10/09 00:38:54;;;;;;;1.90;1.45;;;13.40;99.90;;;;;;4954753;29;20122;-75
2023/10/09 00:41:22;;;;;;;18.60;2.53;;;13.30;99.90;;;;;;4954621;29;20082;-79
2023/10/09 00:43:49;;;;;;;3.13;1.95;;;13.30;99.90;;;;;;4954469;29;20033;-78
2023/10/09 00:48:47;;;;;;;5.18;2.10;;;13.30;99.90;;;;;;4954557;29;20043;-72
2023/10/09 00:51:18;;;;;;;9.05;2.10;;;13.40;99.90;;;;;;4954185;29;20027;-76
2023/10/09 00:53:54;;;;;;;5.20;1.80;;;13.30;99.90;;;;;;4937888;29;20511;-79
2023/10/09 00:59:08;;;;;;;4.72;2.72;;;13.30;99.90;;;;;;4955372;29;20023;-76
2023/10/09 01:01:40;;;;;;;4.70;2.65;;;13.10;99.90;;;;;;4954216;29;20027;-74
2023/10/09 01:04:14;;;;;;;6.72;3.28;;;13.00;99.90;;;;;;4954781;28;20031;-73
2023/10/09 01:07:04;;;;;;;8.48;2.95;;;12.90;99.90;;;;;;4954251;29;20051;-72
2023/10/09 01:09:36;;;;;;;7.63;3.38;;;12.90;99.90;;;;;;4953080;29;20377;-72
2023/10/09 01:14:30;;;;;;;6.75;3.63;;;12.90;99.90;;;;;;4953552;29;20549;-72
2023/10/09 01:17:00;;;;;;;10.20;3.70;;;12.80;99.90;;;;;;4954518;29;20075;-74
2023/10/09 01:19:30;;;;;;;8.98;3.47;;;12.80;99.90;;;;;;4921894;29;20035;-74
2023/10/09 01:22:16;;;;;;;5.55;2.92;;;12.80;99.90;;;;;;4953154;29;20026;-73
2023/10/09 01:24:43;;;;;;;8.82;2.83;;;12.70;99.90;;;;;;4952819;29;20551;-74
2023/10/09 01:27:15;;;;;;;6.22;3.20;;;12.70;99.90;;;;;;4955012;29;20031;-73
2023/10/09 01:29:42;;;;;;;10.80;2.90;;;12.70;99.90;;;;;;4955127;29;20019;-73
2023/10/09 01:32:16;;;;;;;6.45;2.33;;;12.70;99.90;;;;;;4954918;29;20052;-72
2023/10/09 01:34:49;;;;;;;6.68;2.90;;;12.60;99.90;;;;;;4953528;29;21183;-75
2023/10/09 01:37:24;;;;;;;3.58;2.30;;;12.60;99.90;;;;;;4953220;29;20031;-78
2023/10/09 01:40:24;;;;;;;6.38;2.60;;;;;;;;;;4953980;29;20033;-73
2023/10/09 01:42:45;;;;;;;7.03;2.95;;;12.70;99.90;;;;;;4952839;29;20365;-73
2023/10/09 01:47:51;;;;;;;6.45;2.60;;;12.80;99.90;;;;;;4949754;29;20043;-73
2023/10/09 01:50:35;;;;;;;5.30;2.75;;;12.90;99.90;;;;;;4954714;29;20562;-73
2023/10/09 01:53:02;;;;;;;3.92;2.55;;;12.90;99.90;;;;;;4953268;29;20030;-72
2023/10/09 02:01:01;;;;;;;5.15;2.53;;;12.90;99.90;;;;;;4875790;29;20041;-76
2023/10/09 02:03:29;;;;;;;7.65;2.38;;;12.90;99.90;;;;;;4872810;29;20045;-73
2023/10/09 02:06:12;;;;;;;3.95;2.33;;;13.00;99.90;;;;;;4874794;29;20109;-78
2023/10/09 02:08:49;;;;;;;5.10;2.30;;;13.00;99.90;;;;;;4876384;29;20517;-78
2023/10/09 02:11:24;;;;;;;6.65;2.13;;;12.90;99.90;;;;;;4859863;29;20481;-74
2023/10/09 02:14:00;;;;;;;4.18;1.95;;;12.80;99.90;;;;;;4874322;29;20052;-74
2023/10/09 02:16:29;;;;;;;4.68;2.15;;;12.80;99.90;;;;;;4874148;29;20545;-77
2023/10/09 02:21:39;;;;;;;6.47;2.05;;;12.70;99.90;;;;;;4876861;29;20040;-74
2023/10/09 02:24:09;;;;;;;4.85;2.20;;;12.60;99.90;;;;;;4885478;29;20408;-73
2023/10/09 02:31:39;;;;;;;4.77;2.27;;;12.40;99.90;;;;;;4895465;29;20064;-73
2023/10/09 02:34:08;;;;;;;7.63;2.35;;;12.40;99.90;;;;;;4895470;29;20036;-72
2023/10/09 02:39:36;;;;;;;4.22;2.13;;;12.40;99.90;;;;;;4878196;29;20044;-73
2023/10/09 02:42:19;;;;;;;7.85;2.13;;;12.40;99.90;;;;;;4894850;29;20024;-75
2023/10/09 02:44:49;;;;;;;;;;;12.30;99.90;;;;;;4895721;29;20040;-73
2023/10/09 02:47:29;;;;;;;3.53;1.92;;;12.30;99.90;;;;;;4895300;29;20034;-76
2023/10/09 02:50:06;;;;;;;5.00;2.78;;;12.20;99.90;;;;;;4895272;29;20052;-73
2023/10/09 02:52:40;;;;;;;3.20;1.90;;;12.10;99.90;;;;;;4893926;29;20033;-73
2023/10/09 02:55:28;;;;;;;4.75;2.33;;;12.10;99.90;;;;;;4893979;29;20108;-73
2023/10/09 02:58:05;;;;;;;9.65;2.50;;;12.20;99.90;;;;;;4894689;29;20479;-73
2023/10/09 03:00:32;;;;;;;7.80;2.25;;;12.10;99.90;;;;;;4895680;29;20480;-79
2023/10/09 03:02:58;;;;;;;3.33;2.08;;;12.00;99.90;;;;;;4894900;29;20448;-75
2023/10/09 03:05:28;;;;;;;4.22;1.92;;;12.00;99.90;;;;;;4895603;29;20125;-75
2023/10/09 03:07:55;;;;;;;5.50;1.77;;;12.00;99.90;;;;;;4894787;29;20021;-78
2023/10/09 03:10:23;;;;;;;4.40;2.10;;;12.00;99.90;;;;;;4895328;29;20051;-74
2023/10/09 03:12:53;;;;;;;4.85;2.40;;;12.00;99.90;;;;;;4895288;29;20032;-73
2023/10/09 03:15:20;;;;;;;7.95;2.58;;;12.00;99.90;;;;;;4910692;29;20056;-73
2023/10/09 03:17:48;;;;;;;7.97;2.47;;;12.00;99.90;;;;;;4954206;29;20527;-73
2023/10/09 03:20:17;;;;;;;9.77;3.47;;;12.00;99.90;;;;;;4954269;29;20031;-74
2023/10/09 03:22:48;;;;;;;6.22;2.53;;;12.00;99.90;;;;;;4954164;29;20027;-74
2023/10/09 03:25:16;;;;;;;5.40;2.30;;;12.00;99.90;;;;;;4954090;29;20037;-74
2023/10/09 03:27:46;;;;;;;4.38;2.10;;;11.90;99.90;;;;;;4953196;28;20502;-74
2023/10/09 03:30:22;;;;;;;8.45;3.00;;;11.80;99.90;;;;;;4916730;29;20042;-76
2023/10/09 03:32:50;;;;;;;6.88;3.35;;;11.70;99.90;;;;;;4954955;29;20498;-74
2023/10/09 03:35:26;;;;;;;6.20;2.85;;;11.70;99.90;;;;;;4957584;29;20070;-75
2023/10/09 03:38:12;;;;;;;8.60;2.80;;;11.70;99.90;;;;;;4957297;29;20032;-75
2023/10/09 03:40:42;;;;;;;6.72;3.05;;;11.60;99.90;;;;;;4957460;29;20035;-74
2023/10/09 03:43:10;;;;;;;9.20;3.47;;;11.60;99.90;;;;;;4957384;29;20035;-74
2023/10/09 03:45:45;;;;;;;7.97;2.85;;;11.70;99.90;;;;;;4948207;29;20352;-73
2023/10/09 03:48:31;;;;;;;6.35;2.80;;;11.70;99.90;;;;;;4956986;29;20047;-75
2023/10/09 03:51:21;;;;;;;8.93;3.50;;;11.80;99.90;;;;;;4957382;29;20498;-74
2023/10/09 03:53:52;;;;;;;9.80;3.35;;;11.80;99.90;;;;;;4945945;29;20082;-74
2023/10/09 03:56:20;;;;;;;7.97;3.47;;;11.70;99.90;;;;;;4957005;29;20074;-74
2023/10/09 03:58:49;;;;;;;8.65;3.15;;;11.70;99.90;;;;;;4951051;29;20412;-74
2023/10/09 04:04:06;;;;;;;5.35;2.75;;;11.60;99.90;;;;;;4873433;29;20061;-79
2023/10/09 04:06:33;;;;;;;8.52;3.53;;;11.60;99.90;;;;;;4890355;29;20509;-74
2023/10/09 04:14:33;;;;;;;8.40;3.22;;;11.70;99.90;;;;;;4879243;29;20088;-75
2023/10/09 04:22:50;;;;;;;8.35;4.03;;;11.60;99.90;;;;;;4860927;29;20135;-81
2023/10/09 04:25:25;;;;;;;18.98;5.60;;;11.50;99.90;;;;;;4878911;29;20037;-74
2023/10/09 04:28:08;;;;;;;10.10;4.45;;;11.50;99.90;;;;;;4874478;29;20089;-74
2023/10/09 04:30:46;;;;;;;11.05;4.35;;;11.50;99.90;;;;;;4876830;29;20032;-74
2023/10/09 04:36:21;;;;;;;16.80;6.40;;;11.40;99.90;;;;;;4877997;29;20193;-76
2023/10/09 04:41:51;;;;;;;16.77;7.07;;;11.30;99.90;;;;;;4925521;29;20435;-80
2023/10/09 04:44:22;;;;;;;16.15;6.65;;;11.30;99.90;;;;;;4953845;29;20039;-82
2023/10/09 04:47:35;;;;;;;19.67;7.78;;;11.30;99.90;;;;;;4956093;29;20368;-75
2023/10/09 05:02:56;;;;;;;20.23;8.20;;;11.30;99.90;;;;;;4955563;29;20054;-75
2023/10/09 05:08:21;;;;;;;21.40;8.55;;;11.30;99.90;;;;;;4955276;29;20035;-82
2023/10/09 05:16:15;;;;;;;17.40;8.05;;;11.40;99.90;;;;;;4953812;29;20046;-76
2023/10/09 05:18:44;;;;;;;13.55;7.35;;;11.60;99.90;;;;;;4950617;29;20127;-75
2023/10/09 05:23:48;;;;;;;13.57;7.20;;;12.60;99.90;;;;;;4953872;28;20032;-77
2023/10/09 05:28:59;;;;;;;48.67;27.05;;;12.80;99.90;;;;;;4958308;28;20035;-75
2023/10/09 05:34:12;;;;;;;12.95;4.47;;;12.80;99.90;;;;;;4955684;28;20039;-76
2023/10/09 05:36:38;;;;;;;12.20;4.90;;;12.70;99.90;;;;;;4954791;29;21363;-80
2023/10/09 05:39:36;;;;;;;13.80;4.57;;;13.00;99.90;;;;;;4953057;29;20179;-84
2023/10/09 05:42:09;;;;;;;10.30;4.35;;;12.80;99.90;;;;;;4952185;29;20110;-76
2023/10/09 05:47:29;;;;;;;10.77;5.00;;;13.80;99.90;;;;;;4954997;29;20499;-76
2023/10/09 05:49:57;;;;;;;14.38;5.78;;;13.60;99.90;;;;;;4955296;28;20027;-76
2023/10/09 05:52:42;;;;;;;14.27;5.20;;;13.40;99.90;;;;;;4955315;29;20066;-84
2023/10/09 06:03:48;;;;;;;13.68;5.85;;;13.50;99.90;;;;;;4955125;29;20027;-76
2023/10/09 06:06:32;;;;;;;8.00;4.03;;;13.60;99.90;;;;;;4952846;29;20027;-81
2023/10/09 06:14:04;;;;;;;10.00;4.68;;;13.90;99.90;;;;;;4954960;29;20032;-82
2023/10/09 06:19:08;;;;;;;7.28;3.67;;;14.00;99.90;;;;;;4954634;29;20042;-77
2023/10/09 06:24:19;;;;;;;7.97;3.83;;;14.20;99.80;;;;;;4954903;29;20066;-77
2023/10/09 06:29:36;;;;;;;7.53;4.20;;;14.60;98.20;;;;;;4954743;29;20129;-84
2023/10/09 06:35:16;;;;;;;10.40;4.35;;;15.10;97.50;;;;;;4914622;29;20071;-81
2023/10/09 06:43:26;;;;;;;8.95;3.30;;;15.80;96.60;;;;;;4913910;29;20099;-76
2023/10/09 06:46:17;;;;;;;8.50;4.20;;;16.00;96.10;;;;;;4914158;29;20048;-73
2023/10/09 06:48:55;;;;;;;9.35;3.80;;;16.10;95.70;;;;;;4914128;29;20139;-75
2023/10/09 06:56:56;;;;;;;7.18;3.30;;;16.60;94.70;;;;;;4914288;29;20499;-75
2023/10/09 06:59:21;;;;;;;9.70;4.50;;;16.70;93.80;;;;;;4914323;29;20040;-78
2023/10/09 07:02:25;;;;;;;9.88;3.65;;;16.80;93.30;;;;;;4915937;29;20445;-77
2023/10/09 07:07:01;;;;;;;10.48;3.63;;;16.50;93.20;;;;;;4918181;29;20035;-75
2023/10/09 07:09:42;;;;;;;7.03;3.08;;;16.40;92.80;;;;;;4917790;29;20510;-74
2023/10/09 07:12:20;;;;;;;6.75;2.65;;;16.50;93.30;;;;;;4942618;29;20043;-82
2023/10/09 07:20:10;;;;;;;5.63;2.72;;;16.80;91.20;;;;;;4947690;29;20090;-77
2023/10/09 07:22:56;;;;;;;3.92;2.55;;;16.90;91.60;;;;;;4957674;29;20432;-77
2023/10/09 07:25:54;;;;;;;4.88;2.70;;;16.80;91.50;;;;;;4958250;29;20031;-76
2023/10/09 07:28:36;;;;;;;7.68;2.75;;;17.00;91.60;;;;;;4957795;29;20035;-76
2023/10/09 07:31:04;;;;;;;6.95;2.55;;;17.30;91.40;;;;;;4957940;29;20027;-82
2023/10/09 07:36:14;;;;;;;9.98;3.45;;;17.30;94.80;;;;;;4957737;29;20046;-80
2023/10/09 07:38:44;;;;;;;6.93;3.05;;;17.40;93.70;;;;;;4957489;29;20019;-77
2023/10/09 07:46:33;;;;;;;6.97;3.08;;;17.60;93.10;;;;;;4957480;29;20089;-75
2023/10/09 07:49:08;;;;;;;12.05;3.30;;;17.90;96.60;;;;;;4947211;29;20031;-76
2023/10/09 07:51:36;;;;;;;6.05;3.05;;;17.90;90.30;;;;;;4957338;29;20027;-77
2023/10/09 07:54:08;;;;;;;8.77;3.47;;;18.00;90.70;;;;;;4957323;29;20035;-82
2023/10/09 07:56:45;;;;;;;7.40;3.15;;;18.00;88.60;;;;;;4957180;29;20031;-75
2023/10/09 07:59:17;;;;;;;7.72;3.55;;;18.20;90.00;;;;;;4957239;29;20126;-82
2023/10/09 08:01:58;;;;;;;5.43;2.33;;;18.10;90.10;;;;;;4957312;29;20079;-82
2023/10/09 08:04:47;;;;;;;9.02;3.47;;;18.30;90.70;;;;;;4957107;29;20019;-78
2023/10/09 08:07:25;;;;;;;5.38;2.60;;;18.30;89.60;;;;;;4957005;29;20035;-76
2023/10/09 08:12:57;;;;;;;5.95;2.72;;;18.50;87.70;;;;;;4955752;28;20110;-75
2023/10/09 08:18:27;;;;;;;6.00;2.17;;;18.70;94.90;;;;;;4935815;29;20527;-77
2023/10/09 08:26:12;;;;;;;5.22;2.38;;;18.60;88.00;;;;;;4879043;29;20073;-76
2023/10/09 08:28:45;;;;;;;5.72;2.45;;;18.70;86.30;;;;;;4878845;29;20045;-82
2023/10/09 08:34:20;;;;;;;3.92;2.53;;;18.50;87.90;;;;;;4841743;29;20049;-81
2023/10/09 08:36:52;;;;;;;4.20;2.33;;;18.50;88.40;;;;;;4841812;29;20447;-84
2023/10/09 08:39:30;;;;;;;5.32;2.65;;;18.80;88.20;;;;;;4841927;29;20042;-77
2023/10/09 08:41:57;;;;;;;7.60;2.67;;;19.00;88.50;;;;;;4841949;29;20045;-81
2023/10/09 08:44:26;;;;;;;16.65;3.42;;;18.80;86.50;;;;;;4841822;29;20038;-77
2023/10/09 08:46:54;;;;;;;7.97;4.00;;;18.70;87.10;;;;;;4841325;29;20050;-80
2023/10/09 08:49:21;;;;;;;6.15;3.13;;;18.90;85.80;;;;;;4841143;29;20062;-76
2023/10/09 08:51:48;;;;;;;8.27;2.88;;;18.90;87.40;;;;;;4841408;29;20097;-80
2023/10/09 08:54:14;;;;;;;4.95;2.00;;;18.90;87.60;;;;;;4841449;29;20038;-76
2023/10/09 08:56:49;;;;;;;7.82;3.30;;;18.70;89.90;;;;;;4841434;29;20034;-84
2023/10/09 08:59:19;;;;;;;7.13;3.35;;;18.90;89.20;;;;;;4841497;29;20061;-82
2023/10/09 09:01:49;;;;;;;11.75;2.55;;;19.10;88.90;;;;;;4841463;29;20081;-77
2023/10/09 09:04:38;;;;;;;10.13;3.50;;;19.20;88.90;;;;;;4857954;29;20128;-76
2023/10/09 09:07:05;;;;;;;10.63;4.65;;;19.10;87.30;;;;;;4859726;29;20410;-77
2023/10/09 09:09:33;;;;;;;8.30;2.95;;;18.60;87.60;;;;;;4866527;29;20108;-82
2023/10/09 09:12:00;;;;;;;7.88;2.83;;;18.60;89.20;;;;;;4955824;29;20035;-78
2023/10/09 09:14:38;;;;;;;7.00;3.00;;;18.60;90.10;;;;;;4955742;29;20510;-77
2023/10/09 09:17:10;;;;;;;11.73;4.80;;;18.80;90.00;;;;;;4956176;29;20114;-78
2023/10/09 09:19:37;;;;;;;;;;;19.00;89.70;;;;;;4956254;29;20027;-77
2023/10/09 09:22:13;;;;;;;7.53;3.00;;;18.80;88.60;;;;;;4955628;29;19906;-84
2023/10/09 09:25:00;;;;;;;4.15;2.25;;;19.10;90.70;;;;;;4955451;28;20031;-76
2023/10/09 09:27:49;;;;;;;14.07;6.15;;;18.90;90.30;;;;;;4955130;29;20028;-76
2023/10/09 09:30:31;;;;;;;8.05;2.90;;;18.90;89.10;;;;;;4955315;29;20102;-79
2023/10/09 09:33:16;;;;;;;9.23;3.77;;;18.70;90.00;;;;;;4955598;29;20106;-75
2023/10/09 09:36:05;;;;;;;4.32;1.92;;;18.90;90.50;;;;;;4938208;29;20095;-77
2023/10/09 09:38:42;;;;;;;3.38;1.73;;;19.10;89.50;;;;;;4955283;29;20483;-76
2023/10/09 09:41:09;;;;;;;4.13;2.38;;;19.40;90.40;;;;;;4955355;29;20031;-78
2023/10/09 09:43:40;;;;;;;8.45;2.33;;;19.30;89.70;;;;;;4955388;29;20023;-80
2023/10/09 09:46:07;;;;;;;7.75;2.15;;;19.30;91.20;;;;;;4955359;29;20059;-77
2023/10/09 09:48:44;;;;;;;8.43;1.50;;;19.40;91.20;;;;;;4955149;29;20039;-75
2023/10/09 09:51:13;;;;;;;6.13;2.10;;;18.80;90.70;;;;;;4955383;29;20387;-76
2023/10/09 09:53:40;;;;;;;12.55;2.28;;;19.10;90.80;;;;;;4955276;29;20023;-83
2023/10/09 09:56:07;;;;;;;12.43;1.95;;;19.20;90.80;;;;;;4955399;29;20031;-77
2023/10/09 09:58:44;;;;;;;4.78;1.73;;;19.50;91.40;;;;;;4955352;29;20031;-77
2023/10/09 10:01:22;;;;;;;6.80;1.60;;;19.30;90.80;;;;;;4955086;29;20384;-76
2023/10/09 10:03:56;;;;;;;2.67;1.73;;;19.40;91.20;;;;;;4955504;29;20038;-75
2023/10/09 10:06:26;;;;;;;5.57;1.80;;;19.50;91.70;;;;;;4954849;29;20055;-78
2023/10/09 10:08:53;;;;;;;3.60;1.60;;;19.70;92.20;;;;;;4955226;29;20070;-75
2023/10/09 10:11:46;;;;;;;5.45;1.95;;;19.70;87.80;;;;;;4954705;29;20391;-76
2023/10/09 10:14:21;;;;;;;6.63;1.92;;;19.80;87.20;;;;;;4954801;29;20039;-76
2023/10/09 10:17:20;;;;;;;6.45;2.08;;;19.60;86.60;;;;;;4955203;29;20078;-80
2023/10/09 10:20:00;;;;;;;10.70;2.90;;;19.80;89.60;;;;;;4955090;29;20098;-77
2023/10/09 10:22:29;;;;;;;3.72;1.95;;;19.90;88.80;;;;;;4954878;29;20427;-83
2023/10/09 10:24:57;;;;;;;7.18;2.53;;;20.10;90.60;;;;;;4954960;29;20019;-78
2023/10/09 10:27:27;;;;;;;9.32;3.53;;;20.00;87.50;;;;;;4954543;29;20027;-76
2023/10/09 10:30:11;;;;;;;8.00;3.00;;;19.90;86.20;;;;;;4955014;29;20082;-79
2023/10/09 10:32:52;;;;;;;4.13;2.05;;;20.20;87.20;;;;;;4942544;29;20023;-81
2023/10/09 10:35:32;;;;;;;7.90;2.03;;;20.00;86.60;;;;;;4954731;28;20051;-84
2023/10/09 10:40:57;;;;;;;4.50;2.25;;;20.20;88.80;;;;;;4958692;29;20023;-84
2023/10/09 10:43:34;;;;;;;5.45;2.40;;;20.40;88.00;;;;;;4958761;29;20109;-76
2023/10/09 10:46:34;;;;;;;9.13;2.60;;;20.40;85.60;;;;;;4958643;29;20035;-77
2023/10/09 10:52:15;;;;;;;4.63;2.03;;;20.20;87.90;;;;;;4918101;29;20024;-81
2023/10/09 10:57:28;;;;;;;6.38;2.53;;;20.40;87.40;;;;;;4918419;29;20022;-75
2023/10/09 11:00:12;;;;;;;3.60;2.25;;;20.60;88.90;;;;;;4918042;29;20040;-83
2023/10/09 11:02:40;;;;;;;3.15;2.03;;;20.60;87.20;;;;;;4917756;29;20370;-80
2023/10/09 11:05:25;;;;;;;5.25;1.95;;;20.80;88.10;;;;;;4918424;29;20045;-75
2023/10/09 11:07:57;;;;;;;5.05;2.15;;;20.90;87.10;;;;;;4918081;29;20039;-76
2023/10/09 11:10:31;;;;;;;4.72;2.10;;;21.10;89.20;;;;;;4918032;29;20091;-78
2023/10/09 11:15:46;;;;;;;8.88;2.58;;;20.90;85.30;;;;;;4917722;29;20096;-85
2023/10/09 11:18:20;;;;;;;4.45;2.20;;;21.10;88.00;;;;;;4918014;29;20032;-77
2023/10/09 11:21:40;;;;;;;6.28;2.40;;;21.10;85.40;;;;;;4917414;29;20035;-77
2023/10/09 11:23:57;;;;;;;6.85;2.28;;;20.90;85.50;;;;;;4907676;29;20048;-77
2023/10/09 11:26:26;;;;;;;5.28;1.85;;;20.60;87.00;;;;;;4945633;28;20459;-77
2023/10/09 11:29:23;;;;;;;5.50;2.22;;;20.90;88.00;;;;;;4957665;29;20070;-77
2023/10/09 11:31:59;;;;;;;6.03;2.38;;;20.90;87.20;;;;;;4957651;29;20573;-78
2023/10/09 11:34:29;;;;;;;5.30;1.90;;;20.90;87.00;;;;;;4957807;29;20086;-81
2023/10/09 11:37:00;;;;;;;4.85;2.03;;;21.10;89.00;;;;;;4957579;29;20023;-82
2023/10/09 11:39:43;;;;;;;3.60;1.83;;;21.30;86.70;;;;;;4957910;29;20031;-83
2023/10/09 11:42:14;;;;;;;5.20;2.65;;;21.10;85.90;;;;;;4957476;29;20122;-78
2023/10/09 11:44:45;;;;;;;8.80;3.03;;;21.10;87.30;;;;;;4957697;29;20450;-81
2023/10/09 11:47:32;;;;;;;8.23;3.53;;;21.40;88.50;;;;;;4944502;28;20059;-81
2023/10/09 11:52:35;;;;;;;6.53;2.25;;;21.60;93.20;;;;;;4957691;29;20026;-86
2023/10/09 11:55:02;;;;;;;9.68;3.08;;;21.70;88.40;;;;;;4957002;29;20476;-76
2023/10/09 11:57:33;;;;;;;7.30;2.60;;;21.70;85.80;;;;;;4957501;29;20019;-83
2023/10/09 12:00:00;;;;;;;12.40;3.28;;;21.80;85.80;;;;;;4957164;29;20019;-75
2023/10/09 12:02:27;;;;;;;5.30;2.17;;;21.80;86.10;;;;;;4957296;29;20487;-77
2023/10/09 12:04:55;;;;;;;6.35;2.45;;;21.90;85.30;;;;;;4957061;29;20375;-80
2023/10/09 12:07:25;;;;;;;3.95;1.83;;;22.00;87.40;;;;;;4957342;29;20032;-79
2023/10/09 12:09:56;;;;;;;6.75;2.63;;;22.00;87.20;;;;;;4957053;29;20435;-76
2023/10/09 12:12:25;;;;;;;6.03;2.25;;;21.80;86.70;;;;;;4956978;29;20027;-77
2023/10/09 12:14:53;;;;;;;7.95;2.47;;;22.10;89.20;;;;;;4957113;29;20031;-76
2023/10/09 12:17:18;;;;;;;6.90;2.03;;;22.10;87.90;;;;;;4956639;29;20476;-79
2023/10/09 12:19:44;;;;;;;7.35;2.40;;;22.10;88.40;;;;;;4956944;29;20031;-82
2023/10/09 12:22:15;;;;;;;3.30;1.83;;;22.10;89.50;;;;;;4956717;29;20027;-83
2023/10/09 12:24:43;;;;;;;5.97;2.33;;;22.20;89.00;;;;;;4957056;29;20114;-78
2023/10/09 12:27:11;;;;;;;8.10;2.15;;;22.10;86.40;;;;;;4956563;29;20031;-83
2023/10/09 12:29:38;;;;;;;7.30;2.03;;;22.10;85.20;;;;;;4956917;29;20035;-84
2023/10/09 12:32:06;;;;;;;6.65;2.58;;;22.10;88.10;;;;;;4957149;29;20027;-83
2023/10/09 12:34:32;;;;;;;6.15;2.15;;;22.00;86.20;;;;;;4956671;29;20046;-84
2023/10/09 12:37:01;;;;;;;6.22;2.50;;;22.10;88.40;;;;;;4956597;29;20019;-83
2023/10/09 12:39:33;;;;;;;13.55;2.30;;;22.20;88.50;;;;;;4956855;29;20502;-76
2023/10/09 12:42:06;;;;;;;5.38;2.30;;;22.20;87.30;;;;;;4956616;29;20035;-79
2023/10/09 12:44:38;;;;;;;5.93;2.30;;;22.20;86.90;;;;;;4956405;29;20622;-77
2023/10/09 12:47:11;;;;;;;6.55;2.10;;;22.10;89.70;;;;;;4955444;29;20122;-78
2023/10/09 12:49:40;;;;;;;;;;;22.10;87.60;;;;;;4957046;29;20027;-76
2023/10/09 12:52:15;;;;;;;5.00;2.15;;;22.10;88.80;;;;;;4956295;29;19910;-76
2023/10/09 12:54:48;;;;;;;5.85;2.78;;;22.20;88.60;;;;;;4956533;29;20039;-74
2023/10/09 12:57:14;;;;;;;5.28;2.20;;;22.10;88.80;;;;;;4956258;29;20026;-83
2023/10/09 12:59:45;;;;;;;5.35;2.38;;;22.10;84.30;;;;;;4955193;28;20031;-78
2023/10/09 13:02:29;;;;;;;4.03;2.40;;;22.10;84.00;;;;;;4956429;29;20403;-75
2023/10/09 13:04:56;;;;;;;4.90;2.45;;;22.10;84.80;;;;;;4956191;29;20483;-85
2023/10/09 13:07:22;;;;;;;6.00;3.10;;;22.00;84.10;;;;;;4956836;29;20034;-77
2023/10/09 13:10:08;;;;;;;5.97;2.95;;;22.20;86.20;;;;;;4955974;29;20031;-77
2023/10/09 13:12:40;;;;;;;6.85;2.70;;;;;;;;;;4955769;29;20376;-82
2023/10/09 13:15:10;;;;;;;5.65;2.63;;;22.20;93.80;;;;;;4956066;29;20380;-78
2023/10/09 13:17:37;;;;;;;9.32;3.20;;;22.40;94.00;;;;;;4955410;29;20034;-76
2023/10/09 13:20:12;;;;;;;10.90;3.63;;;22.40;94.40;;;;;;4955616;29;20114;-79
2023/10/09 13:22:42;;;;;;;6.28;3.20;;;22.50;91.00;;;;;;4955028;29;20050;-83
2023/10/09 13:25:15;;;;;;;7.95;3.25;;;22.40;89.90;;;;;;4948973;29;20165;-76
2023/10/09 13:27:50;;;;;;;6.00;3.35;;;22.50;90.40;;;;;;4955719;29;20036;-77
2023/10/09 13:30:23;;;;;;;8.02;3.10;;;22.40;87.10;;;;;;4955447;29;20035;-75
2023/10/09 13:32:51;;;;;;;7.93;2.72;;;22.40;87.50;;;;;;4955739;29;20091;-83
2023/10/09 13:35:18;;;;;;;10.57;3.03;;;22.30;88.20;;;;;;4953696;29;20125;-79
2023/10/09 13:37:53;;;;;;;5.13;3.05;;;22.30;88.80;;;;;;4945686;29;20475;-76
2023/10/09 13:40:26;;;;;;;5.57;3.05;;;22.20;87.90;;;;;;4937247;29;20483;-81
2023/10/09 13:42:58;;;;;;;5.85;2.83;;;22.20;90.10;;;;;;4944343;29;20023;-75
2023/10/09 13:45:28;;;;;;;6.70;3.08;;;22.20;90.00;;;;;;4942825;29;20153;-75
2023/10/09 13:47:57;;;;;;;7.10;3.25;;;22.30;88.50;;;;;;4951310;29;20050;-81
2023/10/09 13:50:32;;;;;;;9.77;2.53;;;22.30;86.20;;;;;;4952581;29;20039;-78
2023/10/09 13:52:59;;;;;;;7.00;2.47;;;22.20;86.00;;;;;;4951794;29;20031;-75
2023/10/09 13:55:33;;;;;;;8.07;3.00;;;22.20;86.60;;;;;;4946207;29;20392;-76
2023/10/09 13:57:59;;;;;;;5.95;2.83;;;22.30;87.60;;;;;;4942462;29;20090;-76
2023/10/09 14:00:34;;;;;;;6.78;2.83;;;22.40;87.40;;;;;;4953755;29;20483;-75
2023/10/09 14:03:11;;;;;;;6.85;2.78;;;22.40;86.90;;;;;;4955084;29;20027;-79
2023/10/09 14:05:44;;;;;;;8.70;2.53;;;22.40;85.90;;;;;;4955142;29;20031;-83
2023/10/09 14:08:10;;;;;;;7.25;2.67;;;22.40;87.40;;;;;;4955341;29;20027;-76
2023/10/09 14:10:39;;;;;;;8.77;3.13;;;22.50;86.00;;;;;;4952869;28;20023;-83
2023/10/09 14:13:12;;;;;;;9.27;2.95;;;22.60;87.60;;;;;;4954571;29;20027;-75
2023/10/09 14:15:41;;;;;;;8.48;3.13;;;22.60;90.50;;;;;;4954715;29;20514;-77
2023/10/09 14:18:11;;;;;;;8.38;3.60;;;22.70;90.30;;;;;;4949438;29;20380;-82
2023/10/09 14:20:38;;;;;;;8.80;2.97;;;22.70;91.90;;;;;;4937373;29;20028;-76
2023/10/09 14:23:06;;;;;;;5.25;2.97;;;22.60;83.50;;;;;;4948525;29;20016;-76
2023/10/09 14:25:39;;;;;;;5.40;2.38;;;22.50;84.10;;;;;;4950723;29;20039;-77
2023/10/09 14:28:09;;;;;;;7.38;3.20;;;22.40;82.00;;;;;;4945198;29;20097;-76
2023/10/09 14:30:41;;;;;;;6.82;3.10;;;22.50;82.90;;;;;;4939810;29;20135;-78
2023/10/09 14:33:22;;;;;;;6.80;3.30;;;22.40;82.90;;;;;;4954869;29;20039;-76
2023/10/09 14:35:48;;;;;;;5.25;3.03;;;22.40;84.50;;;;;;4935886;29;20082;-77
2023/10/09 14:38:15;;;;;;;8.00;2.65;;;22.30;83.10;;;;;;4949752;29;20026;-81
2023/10/09 14:40:45;;;;;;;11.65;3.63;;;22.30;83.90;;;;;;4954771;29;20027;-75
2023/10/09 14:43:20;;;;;;;9.75;3.97;;;22.20;83.80;;;;;;4954504;29;20064;-74
2023/10/09 14:45:49;;;;;;;9.05;3.63;;;22.10;83.30;;;;;;4954008;29;20039;-75
2023/10/09 14:48:18;;;;;;;16.55;4.20;;;22.20;83.60;;;;;;4934743;29;20044;-77
2023/10/09 14:50:49;;;;;;;13.80;3.83;;;22.00;82.80;;;;;;4934632;29;20031;-75
2023/10/09 14:53:15;;;;;;;10.60;3.95;;;22.10;83.10;;;;;;4922651;29;20494;-81
2023/10/09 14:55:45;;;;;;;9.48;3.50;;;22.00;82.90;;;;;;4934490;29;20032;-76
2023/10/09 14:58:11;;;;;;;7.85;3.55;;;22.00;83.30;;;;;;4934696;29;20115;-75
2023/10/09 15:00:38;;;;;;;9.80;3.65;;;22.00;82.50;;;;;;4934627;29;20024;-76
2023/10/09 15:03:04;;;;;;;11.23;4.03;;;22.00;84.40;;;;;;4934560;29;20020;-84
2023/10/09 15:05:33;;;;;;;8.82;3.30;;;21.90;83.40;;;;;;4934363;29;20055;-78
2023/10/09 15:08:00;;;;;;;14.77;3.97;;;21.90;83.80;;;;;;4934692;29;20071;-75
2023/10/09 15:10:28;;;;;;;18.35;4.43;;;21.90;84.40;;;;;;4934341;29;20115;-75
2023/10/09 15:12:54;;;;;;;9.93;3.42;;;21.70;83.60;;;;;;4935032;29;20054;-88
2023/10/09 15:15:25;;;;;;;8.10;2.80;;;21.70;84.20;;;;;;4934737;29;20043;-86
2023/10/09 15:17:51;;;;;;;12.20;3.90;;;21.70;84.80;;;;;;4930354;29;20038;-80
2023/10/09 15:20:17;;;;;;;12.13;3.78;;;21.70;84.70;;;;;;4934637;29;20027;-78
2023/10/09 15:22:44;;;;;;;6.45;4.05;;;21.60;84.00;;;;;;4935757;29;20031;-80
2023/10/09 15:25:17;;;;;;;10.05;3.88;;;21.60;85.90;;;;;;4938004;29;20353;-77
2023/10/09 15:27:43;;;;;;;9.70;3.78;;;21.60;85.20;;;;;;4938236;29;20141;-83
2023/10/09 15:30:13;;;;;;;8.88;4.30;;;21.50;85.10;;;;;;4937610;29;20558;-84
2023/10/09 15:32:41;;;;;;;9.80;4.32;;;21.50;85.60;;;;;;4937445;29;20051;-75
2023/10/09 15:35:09;;;;;;;9.02;4.25;;;21.40;85.60;;;;;;4937297;29;20059;-76
2023/10/09 15:37:40;;;;;;;10.35;4.32;;;21.40;85.10;;;;;;4937662;29;20106;-76
2023/10/09 15:40:13;;;;;;;17.55;5.78;;;21.30;86.80;;;;;;4937345;29;20480;-76
2023/10/09 15:42:49;;;;;;;9.90;5.30;;;21.30;86.80;;;;;;4934530;29;20115;-77
2023/10/09 15:45:21;;;;;;;9.18;4.65;;;21.20;87.10;;;;;;4929260;29;20036;-80
2023/10/09 15:47:51;;;;;;;12.13;4.20;;;21.10;88.10;;;;;;4913013;29;1219905;-81
2023/10/09 15:50:17;;;;;;;16.90;5.95;;;21.00;88.80;;;;;;4957218;29;20075;-86
2023/10/09 15:52:43;;;;;;;12.20;6.72;;;20.90;89.20;;;;;;4960995;29;20031;-80